Jennifer — WDF6480 — position and weather

sailwx.info

Track history (hours):
 
Tides and Currents Weather Stations Pressure Air Temp Water Temp Dewpoint Dewpoint Depression Visibility Wind Speed Wind Dir Waves Ship Positions

Jennifer

Owner: John W. Stone Oil Distributor, L.L.C., Gretna, LA. More information available from US FCC via Universal Licensing System and Coast Guard Vessel Documentation Center.

Last reported at 2017-Apr-24 14:37 UTC. Time now 2017-Apr-24 17:22 UTC.
Position N 29°33' W 090°26'.

Length 17 m; draft 3 m.

Type: Tug. MMSI: 367474690.

Date/timePositionNaut miles runAvg speedWind from/ knotsBaromVisibWave heightAir tempDewpointWater temp
2017-Apr-24 14:37N 29°33' W 090°26'2 6.3
2017-Apr-24 14:19N 29°33' W 090°28'5 6.3
2017-Apr-24 13:29N 29°34' W 090°34'3 6.0
2017-Apr-24 13:00N 29°35' W 090°37'3 6.0
2017-Apr-24 12:30N 29°36' W 090°40'2 3.9
2017-Apr-24 12:00N 29°36' W 090°43'2 4.9
2017-Apr-24 11:30N 29°34' W 090°44'1 2.3
2017-Apr-24 11:00N 29°33' W 090°45'0 0.0
2017-Apr-24 10:30N 29°33' W 090°45'0 0.7
2017-Apr-24 10:00N 29°33' W 090°45'2 4.8
2017-Apr-24 09:30N 29°32' W 090°48'3 5.7
2017-Apr-24 08:59N 29°32' W 090°51'3 5.4
2017-Apr-24 08:29N 29°33' W 090°54'51 4.2
2017-Apr-23 20:22N 29°49' W 091°50'2 4.5
2017-Apr-23 19:54N 29°51' W 091°52'2 5.5
2017-Apr-23 19:29N 29°51' W 091°54'3 5.3
2017-Apr-23 19:00N 29°50' W 091°57'3 5.4
2017-Apr-23 18:30N 29°50' W 092°00'3 5.4
2017-Apr-23 18:00N 29°49' W 092°03'3 5.5
2017-Apr-23 17:30N 29°48' W 092°06'3 5.8
2017-Apr-23 17:00N 29°47' W 092°09'2 3.1
2017-Apr-23 16:30N 29°47' W 092°11'0 0.0
2017-Apr-23 16:00N 29°47' W 092°11'0 0.0
2017-Apr-23 15:30N 29°47' W 092°11'0 0.1
2017-Apr-23 15:00N 29°47' W 092°11'0 0.0
2017-Apr-23 14:30N 29°47' W 092°11'1 0.2
2017-Apr-23 11:34N 29°47' W 092°12'0 0.1
2017-Apr-23 11:30N 29°47' W 092°12'2 4.5
2017-Apr-23 11:00N 29°48' W 092°14'2 4.4
2017-Apr-23 10:30N 29°49' W 092°16'3 5.5
2017-Apr-23 10:00N 29°50' W 092°19'3 5.5
2017-Apr-23 09:30N 29°51' W 092°22'3 5.2
2017-Apr-23 09:00N 29°53' W 092°24'40 5.5
2017-Apr-23 01:48N 29°56' W 093°10'2 5.6
2017-Apr-23 01:30N 29°57' W 093°11'3 5.7
2017-Apr-23 01:00N 29°60' W 093°13'3 5.4
2017-Apr-23 00:30N 30°02' W 093°15'3 5.2
2017-Apr-23 00:00N 30°04' W 093°16'2 3.7
2017-Apr-22 23:30N 30°05' W 093°18'1 1.8
2017-Apr-22 23:00N 30°06' W 093°18'0 0.0
2017-Apr-22 22:30N 30°06' W 093°18'0 0.0
2017-Apr-22 22:00N 30°06' W 093°18'0 0.0
2017-Apr-22 21:30N 30°06' W 093°18'1 2.6
2017-Apr-22 21:00N 30°05' W 093°19'3 6.8
2017-Apr-22 20:30N 30°02' W 093°20'3 6.1
2017-Apr-22 20:00N 29°59' W 093°20'9 1.0
2017-Apr-22 10:47N 29°50' W 093°21'2 6.2
2017-Apr-22 10:30N 29°52' W 093°21'3 5.9
2017-Apr-22 10:00N 29°55' W 093°21'3 5.8
2017-Apr-22 09:30N 29°57' W 093°20'3 5.8
2017-Apr-22 09:00N 30°00' W 093°20'3 5.7
2017-Apr-22 08:30N 30°03' W 093°20'2 4.9
2017-Apr-22 08:00N 30°06' W 093°19'2 3.3
2017-Apr-22 07:30N 30°05' W 093°18'1 2.4
2017-Apr-22 07:00N 30°04' W 093°16'1 1.5
2017-Apr-22 06:30N 30°04' W 093°16'0 0.1
2017-Apr-22 06:00N 30°04' W 093°16'0 0.0
2017-Apr-22 05:30N 30°04' W 093°16'0 0.0
2017-Apr-22 05:00N 30°04' W 093°16'0 0.0
2017-Apr-22 04:30N 30°04' W 093°16'0 0.6
2017-Apr-22 04:00N 30°04' W 093°16'2 4.8
2017-Apr-22 03:30N 30°02' W 093°14'3 5.0
2017-Apr-22 03:00N 29°59' W 093°13'3 5.5
2017-Apr-22 02:30N 29°57' W 093°11'2 4.8
2017-Apr-22 02:00N 29°56' W 093°08'36 5.3
2017-Apr-21 19:18N 29°54' W 092°27'2 5.3
2017-Apr-21 18:59N 29°53' W 092°26'2 5.2
2017-Apr-21 18:30N 29°53' W 092°23'3 5.1
2017-Apr-21 18:00N 29°51' W 092°21'1 2.4
2017-Apr-21 17:30N 29°50' W 092°19'2 4.7
2017-Apr-21 17:00N 29°49' W 092°17'3 5.4
2017-Apr-21 16:30N 29°48' W 092°14'3 5.4
2017-Apr-21 16:00N 29°47' W 092°12'1 1.3
2017-Apr-21 15:30N 29°47' W 092°11'0 0.0
2017-Apr-21 15:00N 29°47' W 092°11'0 0.0
2017-Apr-21 14:30N 29°47' W 092°11'0 0.0
2017-Apr-21 13:30N 29°47' W 092°11'0 0.0
2017-Apr-21 13:00N 29°47' W 092°11'0 0.0
2017-Apr-21 12:30N 29°47' W 092°11'0 0.0
2017-Apr-21 12:00N 29°47' W 092°11'0 0.0
2017-Apr-21 11:30N 29°47' W 092°11'0 0.0
2017-Apr-21 11:00N 29°47' W 092°11'0 0.0
2017-Apr-21 10:30N 29°47' W 092°11'0 0.0
2017-Apr-21 10:00N 29°47' W 092°11'0 0.0
2017-Apr-21 09:30N 29°47' W 092°11'0 0.0
2017-Apr-21 09:00N 29°47' W 092°11'0 0.0
2017-Apr-21 08:30N 29°47' W 092°11'0 0.0
2017-Apr-21 08:00N 29°47' W 092°11'0 0.3
2017-Apr-21 07:30N 29°47' W 092°11'2 4.0
2017-Apr-21 07:00N 29°47' W 092°08'2 4.8
2017-Apr-21 06:29N 29°48' W 092°06'2 4.8
2017-Apr-21 06:00N 29°49' W 092°03'2 4.8
2017-Apr-21 05:30N 29°50' W 092°01'2 4.8
2017-Apr-21 05:00N 29°50' W 091°58'2 4.6
2017-Apr-21 04:30N 29°51' W 091°55'52 4.1
2017-Apr-20 15:46N 29°36' W 090°58'2 4.7
2017-Apr-20 15:24N 29°34' W 090°57'2 5.1
2017-Apr-20 15:00N 29°33' W 090°55'3 5.1
2017-Apr-20 14:23N 29°32' W 090°51'2 5.2
2017-Apr-20 14:00N 29°32' W 090°49'2 4.9
2017-Apr-20 13:30N 29°32' W 090°46'2 3.2
2017-Apr-20 13:00N 29°33' W 090°45'2 4.2
2017-Apr-20 12:30N 29°34' W 090°43'2 3.2
2017-Apr-20 12:00N 29°36' W 090°43'2 3.1
2017-Apr-20 11:30N 29°36' W 090°41'2 4.6
2017-Apr-20 11:00N 29°35' W 090°38'2 4.4
2017-Apr-20 10:29N 29°35' W 090°36'2 4.6
2017-Apr-20 10:00N 29°34' W 090°34'  
Track history (hours):
 
Tides and Currents Weather Stations Pressure Air Temp Water Temp Dewpoint Dewpoint Depression Visibility Wind Speed Wind Dir Waves Ship Positions

Jennifer

Owner: John W. Stone Oil Distributor, L.L.C., Gretna, LA. More information available from US FCC via Universal Licensing System and Coast Guard Vessel Documentation Center.

Last reported at 2017-Apr-24 14:37 UTC. Time now 2017-Apr-24 17:22 UTC.
Position N 29°33' W 090°26'.

Length 17 m; draft 3 m.

Type: Tug. MMSI: 367474690.

Date/timePositionNaut miles runAvg speedWind from/ knotsBaromVisibWave heightAir tempDewpointWater temp
2017-Apr-24 14:37N 29°33' W 090°26'2 6.3
2017-Apr-24 14:19N 29°33' W 090°28'5 6.3
2017-Apr-24 13:29N 29°34' W 090°34'3 6.0
2017-Apr-24 13:00N 29°35' W 090°37'3 6.0
2017-Apr-24 12:30N 29°36' W 090°40'2 3.9
2017-Apr-24 12:00N 29°36' W 090°43'2 4.9
2017-Apr-24 11:30N 29°34' W 090°44'1 2.3
2017-Apr-24 11:00N 29°33' W 090°45'0 0.0
2017-Apr-24 10:30N 29°33' W 090°45'0 0.7
2017-Apr-24 10:00N 29°33' W 090°45'2 4.8
2017-Apr-24 09:30N 29°32' W 090°48'3 5.7
2017-Apr-24 08:59N 29°32' W 090°51'3 5.4
2017-Apr-24 08:29N 29°33' W 090°54'51 4.2
2017-Apr-23 20:22N 29°49' W 091°50'2 4.5
2017-Apr-23 19:54N 29°51' W 091°52'2 5.5
2017-Apr-23 19:29N 29°51' W 091°54'3 5.3
2017-Apr-23 19:00N 29°50' W 091°57'3 5.4
2017-Apr-23 18:30N 29°50' W 092°00'3 5.4
2017-Apr-23 18:00N 29°49' W 092°03'3 5.5
2017-Apr-23 17:30N 29°48' W 092°06'3 5.8
2017-Apr-23 17:00N 29°47' W 092°09'2 3.1
2017-Apr-23 16:30N 29°47' W 092°11'0 0.0
2017-Apr-23 16:00N 29°47' W 092°11'0 0.0
2017-Apr-23 15:30N 29°47' W 092°11'0 0.1
2017-Apr-23 15:00N 29°47' W 092°11'0 0.0
2017-Apr-23 14:30N 29°47' W 092°11'1 0.2
2017-Apr-23 11:34N 29°47' W 092°12'0 0.1
2017-Apr-23 11:30N 29°47' W 092°12'2 4.5
2017-Apr-23 11:00N 29°48' W 092°14'2 4.4
2017-Apr-23 10:30N 29°49' W 092°16'3 5.5
2017-Apr-23 10:00N 29°50' W 092°19'3 5.5
2017-Apr-23 09:30N 29°51' W 092°22'3 5.2
2017-Apr-23 09:00N 29°53' W 092°24'40 5.5
2017-Apr-23 01:48N 29°56' W 093°10'2 5.6
2017-Apr-23 01:30N 29°57' W 093°11'3 5.7
2017-Apr-23 01:00N 29°60' W 093°13'3 5.4
2017-Apr-23 00:30N 30°02' W 093°15'3 5.2
2017-Apr-23 00:00N 30°04' W 093°16'2 3.7
2017-Apr-22 23:30N 30°05' W 093°18'1 1.8
2017-Apr-22 23:00N 30°06' W 093°18'0 0.0
2017-Apr-22 22:30N 30°06' W 093°18'0 0.0
2017-Apr-22 22:00N 30°06' W 093°18'0 0.0
2017-Apr-22 21:30N 30°06' W 093°18'1 2.6
2017-Apr-22 21:00N 30°05' W 093°19'3 6.8
2017-Apr-22 20:30N 30°02' W 093°20'3 6.1
2017-Apr-22 20:00N 29°59' W 093°20'9 1.0
2017-Apr-22 10:47N 29°50' W 093°21'2 6.2
2017-Apr-22 10:30N 29°52' W 093°21'3 5.9
2017-Apr-22 10:00N 29°55' W 093°21'3 5.8
2017-Apr-22 09:30N 29°57' W 093°20'3 5.8
2017-Apr-22 09:00N 30°00' W 093°20'3 5.7
2017-Apr-22 08:30N 30°03' W 093°20'2 4.9
2017-Apr-22 08:00N 30°06' W 093°19'2 3.3
2017-Apr-22 07:30N 30°05' W 093°18'1 2.4
2017-Apr-22 07:00N 30°04' W 093°16'1 1.5
2017-Apr-22 06:30N 30°04' W 093°16'0 0.1
2017-Apr-22 06:00N 30°04' W 093°16'0 0.0
2017-Apr-22 05:30N 30°04' W 093°16'0 0.0
2017-Apr-22 05:00N 30°04' W 093°16'0 0.0
2017-Apr-22 04:30N 30°04' W 093°16'0 0.6
2017-Apr-22 04:00N 30°04' W 093°16'2 4.8
2017-Apr-22 03:30N 30°02' W 093°14'3 5.0
2017-Apr-22 03:00N 29°59' W 093°13'3 5.5
2017-Apr-22 02:30N 29°57' W 093°11'2 4.8
2017-Apr-22 02:00N 29°56' W 093°08'36 5.3
2017-Apr-21 19:18N 29°54' W 092°27'2 5.3
2017-Apr-21 18:59N 29°53' W 092°26'2 5.2
2017-Apr-21 18:30N 29°53' W 092°23'3 5.1
2017-Apr-21 18:00N 29°51' W 092°21'1 2.4
2017-Apr-21 17:30N 29°50' W 092°19'2 4.7
2017-Apr-21 17:00N 29°49' W 092°17'3 5.4
2017-Apr-21 16:30N 29°48' W 092°14'3 5.4
2017-Apr-21 16:00N 29°47' W 092°12'1 1.3
2017-Apr-21 15:30N 29°47' W 092°11'0 0.0
2017-Apr-21 15:00N 29°47' W 092°11'0 0.0
2017-Apr-21 14:30N 29°47' W 092°11'0 0.0
2017-Apr-21 13:30N 29°47' W 092°11'0 0.0
2017-Apr-21 13:00N 29°47' W 092°11'0 0.0
2017-Apr-21 12:30N 29°47' W 092°11'0 0.0
2017-Apr-21 12:00N 29°47' W 092°11'0 0.0
2017-Apr-21 11:30N 29°47' W 092°11'0 0.0
2017-Apr-21 11:00N 29°47' W 092°11'0 0.0
2017-Apr-21 10:30N 29°47' W 092°11'0 0.0
2017-Apr-21 10:00N 29°47' W 092°11'0 0.0
2017-Apr-21 09:30N 29°47' W 092°11'0 0.0
2017-Apr-21 09:00N 29°47' W 092°11'0 0.0
2017-Apr-21 08:30N 29°47' W 092°11'0 0.0
2017-Apr-21 08:00N 29°47' W 092°11'0 0.3
2017-Apr-21 07:30N 29°47' W 092°11'2 4.0
2017-Apr-21 07:00N 29°47' W 092°08'2 4.8
2017-Apr-21 06:29N 29°48' W 092°06'2 4.8
2017-Apr-21 06:00N 29°49' W 092°03'2 4.8
2017-Apr-21 05:30N 29°50' W 092°01'2 4.8
2017-Apr-21 05:00N 29°50' W 091°58'2 4.6
2017-Apr-21 04:30N 29°51' W 091°55'52 4.1
2017-Apr-20 15:46N 29°36' W 090°58'2 4.7
2017-Apr-20 15:24N 29°34' W 090°57'2 5.1
2017-Apr-20 15:00N 29°33' W 090°55'3 5.1
2017-Apr-20 14:23N 29°32' W 090°51'2 5.2
2017-Apr-20 14:00N 29°32' W 090°49'2 4.9
2017-Apr-20 13:30N 29°32' W 090°46'2 3.2
2017-Apr-20 13:00N 29°33' W 090°45'2 4.2
2017-Apr-20 12:30N 29°34' W 090°43'2 3.2
2017-Apr-20 12:00N 29°36' W 090°43'2 3.1
2017-Apr-20 11:30N 29°36' W 090°41'2 4.6
2017-Apr-20 11:00N 29°35' W 090°38'2 4.4
2017-Apr-20 10:29N 29°35' W 090°36'2 4.6
2017-Apr-20 10:00N 29°34' W 090°34'  

Dump ship's entire track history